Time;durP1;ratioP1;P1;durP2;ratioP2;P2;SDS_P1;SDS_P2;PMS_P1;PMS_P2;Temp;Humidity;BMP_temperature;BMP_pressure;BME280_temperature;BME280_humidity;BME280_pressure;Samples;Min_cycle;Max_cycle;Signal;HPM_P1;HPM_P2
2024/04/12 00:01:10;;;;;;;4.50;1.90;;;13.90;99.90;;;;;;5464057;26;20336;-70
2024/04/12 00:03:39;;;;;;;5.97;2.50;;;14.00;99.90;;;;;;5459404;26;19999;-70
2024/04/12 00:06:14;;;;;;;6.10;2.97;;;13.70;99.90;;;;;;5457643;26;20024;-70
2024/04/12 00:08:49;;;;;;;8.95;3.08;;;13.70;99.90;;;;;;5459989;26;20014;-70
2024/04/12 00:11:19;;;;;;;4.88;2.92;;;13.80;99.90;;;;;;5462508;26;20013;-70
2024/04/12 00:13:46;;;;;;;5.13;2.78;;;14.00;99.90;;;;;;5458805;26;20039;-70
2024/04/12 00:16:16;;;;;;;6.25;2.15;;;13.90;99.90;;;;;;5462001;26;20013;-70
2024/04/12 00:18:45;;;;;;;6.45;2.65;;;14.00;99.90;;;;;;5459644;26;20006;-70
2024/04/12 00:21:10;;;;;;;7.18;2.38;;;14.10;99.90;;;;;;5461724;26;20046;-70
2024/04/12 00:23:39;;;;;;;5.00;2.17;;;14.10;99.90;;;;;;5463944;26;20517;-70
2024/04/12 00:26:05;;;;;;;6.10;2.80;;;14.10;99.90;;;;;;5462565;26;20010;-70
2024/04/12 00:28:32;;;;;;;5.28;2.75;;;14.10;99.90;;;;;;5464264;26;19994;-70
2024/04/12 00:31:02;;;;;;;5.60;1.95;;;14.00;99.90;;;;;;5464473;26;20475;-70
2024/04/12 00:33:32;;;;;;;6.93;2.63;;;13.90;99.90;;;;;;5466064;26;20018;-70
2024/04/12 00:36:08;;;;;;;7.85;2.78;;;13.90;99.90;;;;;;5466232;26;20441;-70
2024/04/12 00:38:43;;;;;;;7.47;2.38;;;13.80;99.90;;;;;;5464165;26;21549;-70
2024/04/12 00:41:19;;;;;;;4.45;2.92;;;13.70;99.90;;;;;;5463144;26;20002;-70
2024/04/12 00:43:47;;;;;;;8.50;2.58;;;13.40;99.90;;;;;;5463572;26;19998;-70
2024/04/12 00:46:19;;;;;;;6.53;2.30;;;13.50;99.90;;;;;;5459199;26;20454;-70
2024/04/12 00:48:46;;;;;;;3.78;1.80;;;13.50;99.90;;;;;;5462930;26;19997;-70
2024/04/12 00:51:16;;;;;;;7.32;2.30;;;13.60;99.90;;;;;;5459813;26;20026;-70
2024/04/12 00:53:56;;;;;;;4.00;2.13;;;13.40;99.90;;;;;;5463187;26;20012;-70
2024/04/12 00:56:23;;;;;;;10.23;2.65;;;13.70;99.90;;;;;;5461361;26;20336;-70
2024/04/12 00:58:48;;;;;;;5.68;2.28;;;13.70;99.90;;;;;;5457440;26;20006;-70
2024/04/12 01:01:18;;;;;;;7.28;2.67;;;13.70;99.90;;;;;;5463158;26;20006;-70
2024/04/12 01:03:54;;;;;;;4.55;2.50;;;13.70;99.90;;;;;;5457205;26;20324;-70
2024/04/12 01:06:25;;;;;;;6.93;2.45;;;14.00;99.90;;;;;;5462192;26;20002;-70
2024/04/12 01:09:10;;;;;;;5.85;2.55;;;13.90;99.90;;;;;;5461181;26;20002;-70
2024/04/12 01:11:37;;;;;;;5.68;2.60;;;13.80;99.90;;;;;;5461209;26;20010;-70
2024/04/12 01:14:05;;;;;;;6.85;2.55;;;13.70;99.90;;;;;;5455902;26;20001;-70
2024/04/12 01:16:31;;;;;;;7.50;2.35;;;13.80;99.90;;;;;;5465276;26;20013;-70
2024/04/12 01:18:57;;;;;;;5.97;2.42;;;14.10;99.90;;;;;;5458641;26;20017;-70
2024/04/12 01:21:24;;;;;;;6.60;2.40;;;14.20;99.90;;;;;;5458628;26;20006;-70
2024/04/12 01:23:53;;;;;;;5.22;2.30;;;14.20;99.90;;;;;;5456828;26;20332;-70
2024/04/12 01:26:20;;;;;;;7.25;3.30;;;14.10;99.90;;;;;;5458456;26;20010;-70
2024/04/12 01:28:48;;;;;;;3.90;2.10;;;13.60;99.90;;;;;;5455802;26;20012;-70
2024/04/12 01:31:17;;;;;;;6.97;2.92;;;13.30;99.90;;;;;;5457474;26;20044;-70
2024/04/12 01:33:50;;;;;;;3.88;2.45;;;13.30;99.90;;;;;;5459005;26;20016;-70
2024/04/12 01:36:17;;;;;;;5.60;2.30;;;13.40;99.90;;;;;;5458480;26;20002;-70
2024/04/12 01:38:53;;;;;;;4.40;2.53;;;13.40;99.90;;;;;;5461842;26;20018;-70
2024/04/12 01:41:33;;;;;;;6.95;2.80;;;13.40;99.90;;;;;;5463313;26;20015;-70
2024/04/12 01:44:06;;;;;;;7.20;2.63;;;13.60;99.90;;;;;;5463644;26;20734;-70
2024/04/12 01:46:35;;;;;;;4.67;2.33;;;13.60;99.90;;;;;;5463767;26;20078;-70
2024/04/12 01:49:05;;;;;;;6.78;2.58;;;13.30;99.90;;;;;;5462970;26;20078;-70
2024/04/12 01:51:34;;;;;;;6.35;2.35;;;13.20;99.90;;;;;;5464237;26;20451;-70
2024/04/12 01:54:13;;;;;;;4.38;1.90;;;13.30;99.90;;;;;;5462976;26;20001;-70
2024/04/12 01:56:44;;;;;;;5.72;2.88;;;13.00;99.90;;;;;;5464688;26;20076;-70
2024/04/12 01:59:14;;;;;;;7.68;2.45;;;13.20;99.90;;;;;;5463968;26;23363;-70
2024/04/12 02:01:41;;;;;;;5.63;3.03;;;13.30;99.90;;;;;;5462620;26;20020;-70
2024/04/12 02:04:07;;;;;;;5.32;2.63;;;13.20;99.90;;;;;;5463839;26;20013;-70
2024/04/12 02:06:33;;;;;;;8.35;3.55;;;13.00;99.90;;;;;;5462865;26;20443;-70
2024/04/12 02:08:58;;;;;;;8.05;2.75;;;13.00;99.90;;;;;;5463866;26;20042;-70
2024/04/12 02:11:24;;;;;;;4.70;2.50;;;13.00;99.90;;;;;;5464040;26;20006;-70
2024/04/12 02:13:53;;;;;;;6.35;2.97;;;12.80;99.90;;;;;;5463452;26;20010;-70
2024/04/12 02:16:20;;;;;;;4.88;2.92;;;12.70;99.90;;;;;;5462326;26;20037;-70
2024/04/12 02:18:47;;;;;;;7.13;3.78;;;12.70;99.90;;;;;;5463033;26;20006;-70
2024/04/12 02:21:13;;;;;;;7.43;3.05;;;12.70;99.90;;;;;;5461709;26;20397;-70
2024/04/12 02:23:40;;;;;;;12.13;3.10;;;12.50;99.90;;;;;;5461396;26;20006;-70
2024/04/12 02:26:08;;;;;;;7.57;3.45;;;12.50;99.90;;;;;;5463511;26;20436;-70
2024/04/12 02:28:37;;;;;;;12.15;3.33;;;12.60;99.90;;;;;;5462109;26;20475;-70
2024/04/12 02:31:08;;;;;;;6.53;2.75;;;12.50;99.90;;;;;;5463164;26;20006;-70
2024/04/12 02:33:34;;;;;;;5.32;2.95;;;12.60;99.90;;;;;;5460951;26;20626;-70
2024/04/12 02:36:30;;;;;;;8.25;2.92;;;12.70;99.90;;;;;;5462005;26;20006;-70
2024/04/12 02:38:56;;;;;;;8.82;3.45;;;12.80;99.90;;;;;;5461455;26;20033;-70
2024/04/12 02:41:23;;;;;;;6.63;2.80;;;12.60;99.90;;;;;;5461960;26;20472;-70
2024/04/12 02:43:51;;;;;;;9.57;3.13;;;12.60;99.90;;;;;;5463456;26;20014;-70
2024/04/12 02:46:18;;;;;;;5.68;2.90;;;12.90;99.90;;;;;;5461397;26;20012;-70
2024/04/12 02:48:44;;;;;;;10.93;3.03;;;12.90;99.90;;;;;;5463428;26;20610;-70
2024/04/12 02:51:13;;;;;;;4.20;2.50;;;12.80;99.90;;;;;;5462725;26;20605;-70
2024/04/12 02:53:39;;;;;;;4.65;2.72;;;12.90;99.90;;;;;;5460837;26;20038;-70
2024/04/12 02:56:09;;;;;;;5.40;3.10;;;12.80;99.90;;;;;;5462737;26;21701;-70
2024/04/12 02:58:39;;;;;;;5.43;3.17;;;12.80;99.90;;;;;;5463594;26;20002;-70
2024/04/12 03:01:12;;;;;;;8.23;2.83;;;12.70;99.90;;;;;;5461938;26;20336;-69
2024/04/12 03:03:54;;;;;;;8.52;2.67;;;12.80;99.90;;;;;;5457510;26;20006;-69
2024/04/12 03:06:25;;;;;;;12.77;3.22;;;12.90;99.90;;;;;;5454480;26;21553;-69
2024/04/12 03:08:53;;;;;;;7.47;2.75;;;12.80;99.90;;;;;;5453708;26;20006;-69
2024/04/12 03:11:25;;;;;;;6.93;3.17;;;12.70;99.90;;;;;;5454357;26;20032;-69
2024/04/12 03:14:12;;;;;;;6.80;3.00;;;12.80;99.90;;;;;;5454693;26;20615;-69
2024/04/12 03:16:43;;;;;;;4.47;2.45;;;12.90;99.90;;;;;;5457910;26;20357;-69
2024/04/12 03:19:14;;;;;;;5.93;2.60;;;12.80;99.90;;;;;;5453155;26;20005;-69
2024/04/12 03:21:40;;;;;;;6.00;2.50;;;12.80;99.90;;;;;;5458352;26;20006;-69
2024/04/12 03:24:08;;;;;;;6.82;3.25;;;12.60;99.90;;;;;;5456447;26;19994;-69
2024/04/12 03:26:35;;;;;;;8.20;3.45;;;12.60;99.90;;;;;;5456444;26;20090;-69
2024/04/12 03:29:05;;;;;;;7.22;3.22;;;12.60;99.90;;;;;;5453555;26;20003;-69
2024/04/12 03:31:33;;;;;;;6.53;3.22;;;12.60;99.90;;;;;;5455476;26;20021;-69
2024/04/12 03:34:00;;;;;;;8.80;3.47;;;12.60;99.90;;;;;;5457070;26;20006;-69
2024/04/12 03:39:24;;;;;;;6.68;3.05;;;12.70;99.90;;;;;;5455945;26;20001;-69
2024/04/12 03:41:43;;;;;;;7.40;3.75;;;12.80;99.90;;;;;;5456071;26;20021;-69
2024/04/12 03:44:10;;;;;;;7.38;3.50;;;12.70;99.90;;;;;;5456230;26;19998;-69
2024/04/12 03:46:40;;;;;;;7.20;3.88;;;12.70;99.90;;;;;;5455524;26;20095;-69
2024/04/12 03:49:09;;;;;;;5.00;2.80;;;12.70;99.90;;;;;;5456734;26;20048;-69
2024/04/12 03:51:43;;;;;;;6.63;3.40;;;12.80;99.90;;;;;;5453219;26;20405;-70
2024/04/12 03:54:11;;;;;;;8.10;2.97;;;12.60;99.90;;;;;;5454031;26;20030;-70
2024/04/12 03:56:38;;;;;;;6.35;3.63;;;12.60;99.90;;;;;;5456301;26;20006;-70
2024/04/12 03:59:04;;;;;;;6.35;2.92;;;12.60;99.90;;;;;;5455407;26;19991;-71
2024/04/12 04:01:31;;;;;;;7.03;3.28;;;12.60;99.90;;;;;;5454263;26;20712;-70
2024/04/12 04:04:10;;;;;;;7.30;3.53;;;12.60;99.90;;;;;;5453817;26;20518;-70
2024/04/12 04:06:36;;;;;;;6.57;2.92;;;12.70;99.90;;;;;;5454030;26;20696;-70
2024/04/12 04:09:05;;;;;;;10.77;3.35;;;13.00;99.90;;;;;;5456989;26;20017;-70
2024/04/12 04:11:32;;;;;;;7.95;2.90;;;12.90;99.90;;;;;;5454948;26;20082;-70
2024/04/12 04:13:58;;;;;;;6.38;3.30;;;12.90;99.90;;;;;;5453137;26;20298;-70
2024/04/12 04:16:35;;;;;;;7.05;2.92;;;12.90;99.90;;;;;;5454893;26;20005;-71
2024/04/12 04:19:12;;;;;;;8.20;3.05;;;12.90;99.90;;;;;;5455696;26;20075;-70
2024/04/12 04:21:41;;;;;;;7.00;3.53;;;12.80;99.90;;;;;;5453475;26;20003;-71
2024/04/12 04:24:10;;;;;;;10.07;2.95;;;12.90;99.90;;;;;;5454245;26;19991;-70
2024/04/12 04:26:37;;;;;;;8.55;3.55;;;13.10;99.90;;;;;;5453748;26;20007;-70
2024/04/12 04:29:09;;;;;;;6.00;4.00;;;12.90;99.90;;;;;;5449684;26;20025;-71
2024/04/12 04:31:50;;;;;;;6.88;3.55;;;12.60;99.90;;;;;;5450609;26;20447;-70
2024/04/12 04:34:17;;;;;;;5.88;2.92;;;12.70;99.90;;;;;;5448998;26;20443;-71
2024/04/12 04:36:45;;;;;;;9.30;3.10;;;12.60;99.90;;;;;;5452849;26;20006;-70
2024/04/12 04:39:15;;;;;;;5.90;3.28;;;12.90;99.90;;;;;;5452662;26;20007;-71
2024/04/12 04:41:49;;;;;;;6.32;2.92;;;12.90;99.90;;;;;;5454125;26;20005;-70
2024/04/12 04:44:15;;;;;;;5.40;3.10;;;12.90;99.90;;;;;;5455324;26;19998;-70
2024/04/12 04:46:53;;;;;;;4.97;2.72;;;13.00;99.90;;;;;;5453851;26;20002;-70
2024/04/12 04:49:23;;;;;;;7.97;3.35;;;13.20;99.90;;;;;;5454568;26;20452;-70
2024/04/12 04:51:49;;;;;;;9.95;3.75;;;13.20;99.90;;;;;;5451005;26;20496;-71
2024/04/12 04:54:16;;;;;;;7.57;2.53;;;13.20;99.90;;;;;;5455631;26;20078;-71
2024/04/12 04:56:45;;;;;;;6.55;3.47;;;13.20;99.90;;;;;;5455255;26;20006;-70
2024/04/12 04:59:33;;;;;;;6.85;2.80;;;13.00;99.90;;;;;;5458476;26;20794;-70
2024/04/12 05:02:01;;;;;;;8.48;2.58;;;13.00;99.90;;;;;;5457862;26;20010;-70
2024/04/12 05:04:31;;;;;;;6.65;3.58;;;13.10;99.90;;;;;;5454214;26;20074;-70
2024/04/12 05:06:58;;;;;;;6.93;3.10;;;13.00;99.90;;;;;;5456241;26;20010;-70
2024/04/12 05:09:27;;;;;;;8.80;3.25;;;13.00;99.90;;;;;;5451987;26;20017;-70
2024/04/12 05:11:53;;;;;;;5.20;3.00;;;13.10;99.90;;;;;;5454496;26;20092;-70
2024/04/12 05:17:05;;;;;;;7.40;3.33;;;13.10;99.90;;;;;;5457262;26;20539;-70
2024/04/12 05:19:41;;;;;;;9.63;3.80;;;13.30;99.90;;;;;;5458677;26;20092;-70
2024/04/12 05:22:07;;;;;;;5.15;2.70;;;13.20;99.90;;;;;;5447743;26;20006;-70
2024/04/12 05:24:35;;;;;;;7.75;3.33;;;13.10;99.90;;;;;;5456305;26;20002;-71
2024/04/12 05:27:04;;;;;;;6.32;3.25;;;13.00;99.90;;;;;;5458839;26;20002;-70
2024/04/12 05:29:30;;;;;;;9.15;2.92;;;13.20;99.90;;;;;;5455324;26;21065;-72
2024/04/12 05:31:57;;;;;;;5.60;3.08;;;13.30;99.90;;;;;;5456484;26;20091;-71
2024/04/12 05:34:26;;;;;;;5.72;2.53;;;13.10;99.90;;;;;;5455720;26;20002;-70
2024/04/12 05:36:55;;;;;;;7.90;3.15;;;13.00;99.90;;;;;;5451441;26;20452;-69
2024/04/12 05:39:22;;;;;;;8.55;3.75;;;12.80;99.90;;;;;;5449459;26;20002;-70
2024/04/12 05:41:53;;;;;;;8.13;3.58;;;12.80;99.90;;;;;;5449760;26;20022;-70
2024/04/12 05:44:22;;;;;;;8.38;3.35;;;13.00;99.90;;;;;;5455066;26;20004;-69
2024/04/12 05:46:48;;;;;;;6.10;3.33;;;13.20;99.90;;;;;;5454242;26;20017;-69
2024/04/12 05:49:15;;;;;;;7.85;3.53;;;13.20;99.90;;;;;;5452225;26;19999;-69
2024/04/12 05:51:41;;;;;;;5.50;3.00;;;13.20;99.90;;;;;;5451467;26;20051;-69
2024/04/12 05:54:15;;;;;;;6.43;3.28;;;13.30;99.90;;;;;;5455522;26;20086;-69
2024/04/12 05:56:43;;;;;;;5.33;3.03;;;13.30;99.90;;;;;;5454009;26;22050;-69
2024/04/12 05:59:15;;;;;;;8.50;3.20;;;13.10;99.90;;;;;;5453155;26;20724;-70
2024/04/12 06:01:49;;;;;;;5.43;3.00;;;13.30;99.90;;;;;;5452677;26;20009;-70
2024/04/12 06:04:19;;;;;;;7.43;3.47;;;13.40;99.90;;;;;;5455336;26;20923;-69
2024/04/12 06:06:46;;;;;;;5.55;2.75;;;13.40;99.90;;;;;;5453120;26;21653;-69
2024/04/12 06:09:22;;;;;;;5.03;2.88;;;13.30;99.90;;;;;;5451146;26;20021;-70
2024/04/12 06:11:54;;;;;;;7.68;2.42;;;13.20;99.90;;;;;;5452838;26;20013;-70
2024/04/12 06:14:21;;;;;;;4.80;2.60;;;13.10;99.90;;;;;;5453817;26;20006;-70
2024/04/12 06:16:57;;;;;;;11.57;3.90;;;13.00;99.90;;;;;;5451972;26;20050;-70
2024/04/12 06:19:25;;;;;;;4.60;2.72;;;13.10;99.90;;;;;;5451266;26;20683;-69
2024/04/12 06:21:51;;;;;;;8.02;3.13;;;13.10;99.90;;;;;;5452460;26;20018;-69
2024/04/12 06:24:29;;;;;;;5.15;3.00;;;13.20;99.90;;;;;;5452015;26;20021;-70
2024/04/12 06:26:57;;;;;;;5.38;3.05;;;13.30;99.90;;;;;;5452513;26;20841;-69
2024/04/12 06:29:26;;;;;;;5.97;3.00;;;13.30;99.90;;;;;;5451589;26;20020;-70
2024/04/12 06:31:56;;;;;;;5.45;3.28;;;13.40;99.90;;;;;;5450914;26;20007;-69
2024/04/12 06:34:22;;;;;;;7.50;2.88;;;13.40;99.90;;;;;;5453260;26;20014;-69
2024/04/12 06:36:56;;;;;;;5.20;2.83;;;13.40;99.90;;;;;;5450443;26;20094;-69
2024/04/12 06:39:26;;;;;;;5.68;2.97;;;13.50;99.90;;;;;;5449319;26;20354;-70
2024/04/12 06:41:57;;;;;;;6.32;3.42;;;13.60;99.90;;;;;;5448645;26;20130;-70
2024/04/12 06:44:24;;;;;;;7.80;2.78;;;13.70;99.90;;;;;;5452145;26;20013;-69
2024/04/12 06:46:53;;;;;;;7.63;3.40;;;14.40;99.90;;;;;;5452191;26;20018;-69
2024/04/12 06:49:19;;;;;;;5.32;2.53;;;15.50;99.90;;;;;;5455025;26;20013;-69
2024/04/12 06:54:47;;;;;;;6.30;2.75;;;17.70;99.90;;;;;;5335091;26;20064;-70
2024/04/12 06:57:17;;;;;;;5.30;2.42;;;18.50;99.90;;;;;;5432207;26;20021;-70
2024/04/12 06:59:46;;;;;;;8.15;3.65;;;19.50;99.20;;;;;;5454532;26;20006;-70
2024/04/12 07:02:14;;;;;;;3.88;2.15;;;19.60;99.40;;;;;;5455175;26;20015;-70
2024/04/12 07:04:40;;;;;;;6.78;2.60;;;20.50;98.40;;;;;;5452155;26;20387;-70
2024/04/12 07:07:05;;;;;;;9.30;2.83;;;20.50;97.30;;;;;;5456341;26;20010;-70
2024/04/12 07:09:34;;;;;;;6.03;2.33;;;21.40;97.10;;;;;;5463148;26;20530;-71
2024/04/12 07:12:05;;;;;;;6.10;2.83;;;21.20;97.50;;;;;;5461208;26;20005;-70
2024/04/12 07:14:36;;;;;;;5.65;2.28;;;20.60;97.10;;;;;;5462742;26;20002;-70
2024/04/12 07:17:19;;;;;;;7.13;3.33;;;21.00;96.60;;;;;;5463622;26;20483;-70
2024/04/12 07:19:49;;;;;;;4.40;2.28;;;21.50;95.60;;;;;;5462962;26;20006;-70
2024/04/12 07:22:20;;;;;;;5.82;2.25;;;22.00;95.20;;;;;;5460639;26;20017;-70
2024/04/12 07:24:52;;;;;;;3.90;2.45;;;22.50;94.90;;;;;;5462355;26;20013;-70
2024/04/12 07:27:22;;;;;;;5.97;2.55;;;22.30;94.10;;;;;;5463811;26;20522;-70
2024/04/12 07:29:49;;;;;;;8.02;2.80;;;20.70;95.70;;;;;;5463614;26;20149;-70
2024/04/12 07:32:16;;;;;;;6.30;3.38;;;18.60;98.30;;;;;;5462679;26;20707;-70
2024/04/12 07:34:51;;;;;;;5.95;3.65;;;17.00;99.90;;;;;;5463822;26;20848;-70
2024/04/12 07:37:27;;;;;;;5.22;2.70;;;16.10;99.90;;;;;;5463909;26;20002;-70
2024/04/12 07:40:19;;;;;;;5.47;3.08;;;15.70;99.90;;;;;;5463291;26;19994;-70
2024/04/12 07:42:50;;;;;;;7.20;2.72;;;15.70;99.90;;;;;;5464345;26;20698;-70
2024/04/12 07:45:23;;;;;;;6.55;2.72;;;15.60;99.90;;;;;;5463048;26;20074;-70
2024/04/12 07:47:53;;;;;;;5.45;2.70;;;15.70;99.90;;;;;;5461521;26;20024;-70
2024/04/12 07:50:31;;;;;;;4.63;2.78;;;15.80;99.90;;;;;;5461990;26;20018;-70
2024/04/12 07:56:08;;;;;;;4.93;2.55;;;15.60;99.90;;;;;;5398005;26;20006;-70
2024/04/12 07:58:34;;;;;;;5.85;3.53;;;15.70;99.90;;;;;;5462633;26;20348;-70
2024/04/12 08:01:15;;;;;;;5.78;2.63;;;15.60;99.90;;;;;;5460931;26;20111;-70
2024/04/12 08:03:42;;;;;;;6.45;2.70;;;15.80;99.90;;;;;;5462424;26;19998;-71
2024/04/12 08:06:19;;;;;;;7.72;2.90;;;16.10;99.90;;;;;;5463056;26;20002;-70
2024/04/12 08:08:46;;;;;;;8.48;2.33;;;16.00;99.90;;;;;;5458641;26;20077;-70
2024/04/12 08:11:33;;;;;;;5.75;2.90;;;16.10;99.90;;;;;;5458465;26;19994;-70
2024/04/12 08:14:06;;;;;;;5.35;3.30;;;16.00;99.90;;;;;;5459308;26;21897;-70
2024/04/12 08:16:39;;;;;;;7.93;2.97;;;16.10;99.90;;;;;;5458208;26;19998;-70
2024/04/12 08:19:12;;;;;;;8.20;2.70;;;16.10;99.90;;;;;;5459966;26;19995;-70
2024/04/12 08:21:39;;;;;;;6.28;3.03;;;16.00;99.90;;;;;;5458849;26;20005;-70
2024/04/12 08:24:09;;;;;;;7.60;3.28;;;16.10;99.90;;;;;;5458448;26;20009;-70
2024/04/12 08:26:45;;;;;;;6.32;3.03;;;16.00;99.90;;;;;;5459169;26;20007;-71
2024/04/12 08:29:23;;;;;;;8.57;2.58;;;16.40;99.90;;;;;;5456423;26;20018;-70
2024/04/12 08:32:04;;;;;;;8.30;3.05;;;16.40;99.90;;;;;;5456498;26;20795;-70
2024/04/12 08:34:31;;;;;;;7.40;2.80;;;16.30;99.90;;;;;;5457232;26;20118;-70
2024/04/12 08:36:57;;;;;;;8.07;3.50;;;16.30;99.90;;;;;;5457653;26;20013;-70
2024/04/12 08:39:25;;;;;;;7.88;3.15;;;16.20;99.90;;;;;;5454316;26;20002;-70
2024/04/12 08:42:04;;;;;;;6.95;3.15;;;16.50;99.90;;;;;;5453949;26;20074;-70
2024/04/12 08:44:30;;;;;;;7.50;3.13;;;16.40;99.90;;;;;;5455221;26;20007;-70
2024/04/12 08:47:30;;;;;;;6.88;2.63;;;16.50;99.90;;;;;;5455569;26;20700;-70
2024/04/12 08:50:07;;;;;;;5.25;2.90;;;18.70;99.90;;;;;;5456530;26;20016;-70
2024/04/12 08:52:42;;;;;;;6.93;3.35;;;21.00;98.90;;;;;;5456016;26;20030;-70
2024/04/12 08:55:13;;;;;;;4.75;2.55;;;21.60;97.40;;;;;;5455196;26;20182;-70
2024/04/12 08:57:42;;;;;;;10.77;2.60;;;21.20;96.80;;;;;;5454040;26;20778;-70
2024/04/12 09:00:18;;;;;;;4.25;2.10;;;21.30;97.00;;;;;;5452547;26;20009;-70
2024/04/12 09:02:50;;;;;;;6.10;2.65;;;21.80;95.60;;;;;;5454238;26;20041;-70
2024/04/12 09:05:22;;;;;;;9.18;2.70;;;22.60;95.40;;;;;;5455113;26;19998;-70
2024/04/12 09:07:50;;;;;;;8.95;2.40;;;22.90;94.80;;;;;;5452826;26;20500;-70
2024/04/12 09:10:19;;;;;;;8.20;2.63;;;22.20;95.40;;;;;;5452840;26;20009;-70
2024/04/12 09:12:46;;;;;;;8.10;3.08;;;22.20;95.00;;;;;;5452719;26;20002;-70
2024/04/12 09:15:24;;;;;;;7.82;2.30;;;22.10;95.50;;;;;;5456157;26;20046;-70
2024/04/12 09:17:59;;;;;;;6.47;2.47;;;22.00;96.10;;;;;;5451766;26;20041;-70
2024/04/12 09:20:35;;;;;;;6.72;2.95;;;22.20;96.40;;;;;;5454651;26;20002;-70
2024/04/12 09:23:14;;;;;;;6.47;2.60;;;20.70;96.60;;;;;;5456547;26;20002;-70
2024/04/12 09:25:45;;;;;;;7.13;2.33;;;20.40;97.00;;;;;;5452618;26;20052;-71
2024/04/12 09:28:13;;;;;;;5.97;3.33;;;20.20;97.10;;;;;;5453600;26;20010;-71
2024/04/12 09:33:31;;;;;;;6.78;2.55;;;19.10;97.90;;;;;;5453107;26;20020;-70
2024/04/12 09:36:04;;;;;;;5.07;2.47;;;19.20;98.20;;;;;;5453373;26;20057;-70
2024/04/12 09:38:31;;;;;;;5.78;2.92;;;19.40;97.30;;;;;;5453763;26;20010;-72
2024/04/12 09:41:03;;;;;;;5.82;2.63;;;19.20;98.60;;;;;;5453997;26;20050;-71
2024/04/12 09:43:36;;;;;;;11.55;3.10;;;18.90;98.10;;;;;;5453101;26;20034;-70
2024/04/12 09:46:17;;;;;;;4.50;2.20;;;19.10;98.10;;;;;;5452817;26;20011;-70
2024/04/12 10:38:54;;;;;;;6.80;2.67;;;20.60;96.60;;;;;;5455605;26;20021;-69
2024/04/12 10:41:22;;;;;;;9.13;3.10;;;20.80;97.70;;;;;;5454139;26;20006;-69
2024/04/12 10:43:47;;;;;;;5.93;2.35;;;20.80;96.60;;;;;;5455789;26;20006;-69
2024/04/12 10:46:13;;;;;;;6.43;2.40;;;21.00;97.80;;;;;;5457588;26;20013;-69
2024/04/12 10:48:42;;;;;;;8.15;3.03;;;21.40;97.60;;;;;;5456164;26;20005;-68
2024/04/12 10:51:08;;;;;;;7.10;2.72;;;21.20;96.70;;;;;;5454894;26;20006;-69
2024/04/12 10:53:38;;;;;;;7.22;2.67;;;21.10;96.60;;;;;;5455014;26;20006;-69
2024/04/12 10:56:18;;;;;;;10.93;3.53;;;21.10;96.20;;;;;;5454793;26;19994;-69
2024/04/12 10:58:51;;;;;;;6.35;2.88;;;21.20;97.30;;;;;;5455748;26;20000;-69
2024/04/12 11:01:18;;;;;;;7.28;3.25;;;21.20;96.10;;;;;;5455380;26;20009;-69
2024/04/12 11:03:56;;;;;;;9.23;2.42;;;21.40;97.70;;;;;;5455829;26;20535;-69
2024/04/12 11:06:30;;;;;;;6.50;2.42;;;21.40;96.80;;;;;;5454642;26;21285;-69
2024/04/12 11:08:58;;;;;;;4.30;2.30;;;21.80;96.80;;;;;;5455169;26;19994;-69
2024/04/12 11:11:31;;;;;;;7.35;2.97;;;22.10;96.30;;;;;;5454530;26;20612;-69
2024/04/12 11:13:59;;;;;;;10.50;2.67;;;22.00;95.90;;;;;;5453233;26;20798;-70
2024/04/12 11:32:56;;;;;;;6.43;2.92;;;21.90;95.90;;;;;;5454378;26;20025;-70
2024/04/12 11:35:28;;;;;;;7.25;3.50;;;22.10;96.30;;;;;;5452370;26;20006;-70
2024/04/12 11:37:55;;;;;;;4.45;2.45;;;22.10;96.40;;;;;;5454972;26;20149;-70
2024/04/12 11:40:21;;;;;;;6.78;2.30;;;22.30;96.10;;;;;;5454198;26;20002;-70
2024/04/12 11:42:47;;;;;;;7.38;2.85;;;22.40;95.50;;;;;;5454322;26;20082;-70
2024/04/12 11:45:17;;;;;;;6.72;2.53;;;22.50;95.90;;;;;;5454569;26;19998;-70
2024/04/12 11:47:44;;;;;;;6.97;2.63;;;22.50;95.20;;;;;;5453699;26;20010;-70
2024/04/12 11:50:10;;;;;;;6.10;2.63;;;22.70;95.10;;;;;;5452774;26;20796;-69
2024/04/12 11:52:39;;;;;;;4.78;2.50;;;22.80;95.40;;;;;;5452343;26;20853;-69
2024/04/12 11:55:06;;;;;;;5.28;2.70;;;22.90;95.90;;;;;;5454606;26;19998;-69
2024/04/12 11:57:36;;;;;;;4.80;2.35;;;22.80;95.70;;;;;;5453278;26;20014;-70
2024/04/12 12:00:09;;;;;;;6.78;3.30;;;23.00;95.60;;;;;;5453485;26;20074;-70
2024/04/12 12:02:36;;;;;;;5.20;2.35;;;23.00;95.40;;;;;;5453878;26;20003;-70
2024/04/12 12:05:01;;;;;;;7.18;3.05;;;23.20;95.40;;;;;;5455024;26;20010;-69
2024/04/12 12:07:27;;;;;;;7.72;2.95;;;23.40;96.00;;;;;;5454001;26;20002;-69
2024/04/12 12:09:52;;;;;;;6.90;3.03;;;23.30;95.00;;;;;;5454924;26;20054;-70
2024/04/12 12:12:21;;;;;;;7.63;2.65;;;23.30;94.70;;;;;;5451093;26;21039;-70
2024/04/12 12:14:47;;;;;;;5.85;2.28;;;23.30;94.70;;;;;;5443385;26;20901;-69
2024/04/12 12:17:18;;;;;;;6.55;3.00;;;23.30;94.90;;;;;;5449977;26;20006;-71
2024/04/12 12:19:51;;;;;;;13.77;3.70;;;23.50;95.60;;;;;;5445011;26;20006;-69
2024/04/12 12:22:18;;;;;;;7.07;2.35;;;23.50;95.30;;;;;;5447651;26;20020;-70
2024/04/12 12:24:44;;;;;;;5.57;2.55;;;23.70;95.80;;;;;;5446842;26;20002;-69
2024/04/12 12:27:11;;;;;;;6.13;2.85;;;23.60;95.00;;;;;;5447210;26;20104;-70
2024/04/12 12:29:37;;;;;;;6.20;3.15;;;23.50;94.50;;;;;;5449571;26;20006;-70
2024/04/12 12:32:04;;;;;;;7.20;2.20;;;23.50;94.70;;;;;;5452863;26;20082;-70
2024/04/12 12:34:33;;;;;;;7.32;3.10;;;23.50;94.20;;;;;;5445916;26;19998;-70
2024/04/12 12:36:59;;;;;;;4.00;2.08;;;23.70;95.70;;;;;;5444359;26;20006;-70
2024/04/12 12:39:30;;;;;;;9.30;2.38;;;24.00;96.20;;;;;;5452627;26;20002;-70
2024/04/12 12:41:57;;;;;;;6.32;2.67;;;24.10;95.90;;;;;;5449811;26;20002;-70
2024/04/12 12:44:22;;;;;;;9.38;3.03;;;24.00;94.80;;;;;;5440598;26;20002;-70
2024/04/12 12:46:48;;;;;;;6.07;2.30;;;24.10;95.40;;;;;;5455660;26;20017;-70
2024/04/12 12:49:19;;;;;;;6.35;3.35;;;24.10;95.50;;;;;;5452866;26;20016;-70
2024/04/12 12:51:47;;;;;;;4.57;2.38;;;24.00;94.80;;;;;;5453646;26;20331;-70
2024/04/12 12:54:13;;;;;;;7.18;2.50;;;24.00;95.40;;;;;;5453343;26;20070;-70
2024/04/12 12:56:40;;;;;;;5.13;2.55;;;24.10;94.70;;;;;;5455466;26;20018;-70
2024/04/12 12:59:06;;;;;;;5.13;2.30;;;23.80;94.40;;;;;;5452188;26;20013;-70
2024/04/12 13:01:35;;;;;;;7.55;2.28;;;23.80;94.60;;;;;;5452146;26;20002;-70
2024/04/12 13:04:07;;;;;;;5.22;2.20;;;24.10;95.00;;;;;;5453866;26;20018;-70
2024/04/12 13:06:36;;;;;;;5.55;2.20;;;24.50;94.80;;;;;;5451778;26;20003;-70
2024/04/12 13:09:04;;;;;;;5.38;2.28;;;24.60;95.30;;;;;;5453453;26;20017;-70
2024/04/12 13:11:31;;;;;;;10.13;2.75;;;24.80;94.20;;;;;;5447910;26;20024;-70
2024/04/12 13:13:59;;;;;;;4.82;2.30;;;24.70;92.50;;;;;;5444902;26;20006;-70
2024/04/12 13:16:25;;;;;;;13.18;2.88;;;24.70;94.00;;;;;;5444803;26;20013;-69
2024/04/12 13:18:56;;;;;;;7.03;2.67;;;24.60;92.60;;;;;;5445123;26;20010;-70
2024/04/12 13:21:23;;;;;;;4.68;2.40;;;24.60;93.30;;;;;;5445742;26;20014;-70
2024/04/12 13:23:49;;;;;;;8.15;2.72;;;24.60;93.60;;;;;;5446791;26;20567;-70
2024/04/12 13:26:33;;;;;;;10.32;2.35;;;24.80;93.10;;;;;;5446349;26;20014;-70
2024/04/12 13:28:59;;;;;;;7.07;2.53;;;24.70;92.40;;;;;;5451504;26;20008;-70
2024/04/12 13:31:25;;;;;;;6.35;2.67;;;24.50;92.30;;;;;;5446974;26;20006;-70
2024/04/12 13:33:54;;;;;;;7.93;2.10;;;24.60;93.40;;;;;;5447459;26;20013;-70
2024/04/12 13:36:20;;;;;;;6.78;3.08;;;24.80;93.50;;;;;;5450602;26;20002;-70
2024/04/12 13:38:50;;;;;;;10.60;2.20;;;24.80;93.30;;;;;;5456734;26;20017;-70
2024/04/12 13:41:16;;;;;;;4.88;2.47;;;25.00;93.10;;;;;;5456788;26;20425;-70
2024/04/12 13:43:46;;;;;;;5.70;2.00;;;25.10;93.10;;;;;;5456363;26;20148;-70
2024/04/12 13:51:51;;;;;;;6.22;2.53;;;25.30;93.50;;;;;;5455225;26;20074;-70
2024/04/12 13:54:21;;;;;;;3.83;2.17;;;25.40;91.50;;;;;;5453836;26;20017;-70
2024/04/12 13:56:48;;;;;;;9.15;2.35;;;25.40;92.10;;;;;;5454559;26;20005;-70
2024/04/12 13:59:14;;;;;;;4.43;2.40;;;25.60;93.00;;;;;;5448934;26;20079;-70
2024/04/12 14:01:40;;;;;;;4.80;2.05;;;25.70;92.40;;;;;;5450796;26;19998;-70
2024/04/12 14:04:09;;;;;;;7.53;2.55;;;25.50;91.50;;;;;;5453094;26;20021;-70
2024/04/12 14:06:36;;;;;;;6.78;2.13;;;25.50;92.00;;;;;;5453986;26;20021;-70
2024/04/12 14:09:09;;;;;;;8.65;2.75;;;25.60;93.90;;;;;;5452405;26;20030;-71
2024/04/12 14:11:38;;;;;;;5.47;2.65;;;25.60;92.30;;;;;;5453573;26;20017;-70
2024/04/12 14:14:04;;;;;;;5.13;2.17;;;25.50;92.80;;;;;;5457845;26;20002;-70
2024/04/12 14:16:41;;;;;;;5.35;2.58;;;25.80;93.50;;;;;;5455721;26;20021;-70
2024/04/12 14:19:17;;;;;;;8.50;2.33;;;25.80;93.10;;;;;;5456660;26;20090;-70
2024/04/12 14:21:48;;;;;;;5.32;2.10;;;25.90;93.70;;;;;;5457512;26;20006;-70
2024/04/12 14:27:00;;;;;;;8.20;2.70;;;25.80;93.50;;;;;;5456826;26;20115;-70
2024/04/12 14:29:36;;;;;;;8.07;2.60;;;26.00;93.40;;;;;;5456750;26;20010;-70